Barrow, Illinois
Current Conditions -  °F | °C
As of 12:15 PM on Sunday 25 Jan 2015 (Local Time) from KIJX Reporting Station
Haze Haze  
Wind Chill: 31°   Ceiling: 700
Heat Index: 39°   Visibility: 5mi
Dew Point: 37°   Wind: 14mph
Humidity: 89%   Direction: 30°NNE
Pressure: 29.65"   Gusts: 21mph
Location:  39.491°N, 90.2996°W
Report Text: KIJX 251815Z AUTO 03012G18KT 5SM BR OVC007 04/03 A2965 RMK AO2 T00410025
Loading
Personal Weather Stations






























Interactive Weather Map New forecast layout! Learn more

10-Day Weather Forecast

Advertisements
Track Severe Weather on mobile